Time;durP1;ratioP1;P1;durP2;ratioP2;P2;SDS_P1;SDS_P2;PMS_P1;PMS_P2;Temp;Humidity;BMP_temperature;BMP_pressure;BME280_temperature;BME280_humidity;BME280_pressure;Samples;Min_cycle;Max_cycle;Signal;HPM_P1;HPM_P2
2023/04/03 00:00:58;;;;;;;0.75;0.75;;;5.80;99.90;;;;;;6180016;28;20051;-78
2023/04/03 00:04:00;;;;;;;0.70;0.70;;;5.80;99.90;;;;;;6178498;28;20533;-76
2023/04/03 00:07:02;;;;;;;1.15;1.02;;;5.80;99.90;;;;;;6175712;28;20425;-77
2023/04/03 00:10:06;;;;;;;1.67;1.08;;;5.80;99.90;;;;;;6175777;28;20047;-77
2023/04/03 00:13:08;;;;;;;0.73;0.73;;;5.80;99.90;;;;;;6178962;28;20062;-78
2023/04/03 00:16:10;;;;;;;0.93;0.93;;;5.80;99.90;;;;;;6163239;28;20498;-78
2023/04/03 00:19:12;;;;;;;2.92;1.17;;;5.80;99.90;;;;;;6156271;28;20047;-78
2023/04/03 00:22:14;;;;;;;1.63;1.42;;;5.80;99.90;;;;;;6160417;28;20054;-77
2023/04/03 00:25:17;;;;;;;1.50;1.10;;;5.80;99.90;;;;;;6178468;28;20466;-78
2023/04/03 00:28:19;;;;;;;1.38;1.02;;;5.80;99.90;;;;;;6176387;28;20050;-78
2023/04/03 00:31:20;;;;;;;1.25;1.15;;;5.80;99.90;;;;;;6165037;28;20043;-77
2023/04/03 00:34:22;;;;;;;1.88;1.13;;;5.80;99.90;;;;;;6153767;28;20055;-78
2023/04/03 00:37:24;;;;;;;1.17;0.90;;;5.80;99.90;;;;;;6154554;29;20062;-78
2023/04/03 00:40:27;;;;;;;1.10;0.98;;;5.80;99.90;;;;;;6150232;28;20055;-77
2023/04/03 00:43:29;;;;;;;1.75;1.02;;;5.70;99.90;;;;;;6149812;28;20047;-77
2023/04/03 00:46:31;;;;;;;2.30;1.48;;;5.70;99.90;;;;;;6150537;28;20045;-77
2023/04/03 00:49:33;;;;;;;2.15;1.00;;;5.80;99.90;;;;;;6150113;28;20051;-77
2023/04/03 00:52:35;;;;;;;1.00;0.95;;;5.70;99.90;;;;;;6149970;28;20054;-76
2023/04/03 00:55:38;;;;;;;1.30;1.17;;;5.70;99.90;;;;;;6150536;28;20047;-77
2023/04/03 00:58:44;;;;;;;1.92;1.05;;;5.70;99.90;;;;;;6150809;28;20062;-77
2023/04/03 01:01:46;;;;;;;1.40;1.08;;;5.80;99.90;;;;;;6150483;28;20158;-76
2023/04/03 01:04:48;;;;;;;1.23;0.90;;;5.80;99.90;;;;;;6150666;28;20047;-76
2023/04/03 01:07:52;;;;;;;0.75;0.75;;;5.80;99.90;;;;;;6149862;28;20078;-76
2023/04/03 01:10:55;;;;;;;1.17;0.93;;;5.80;99.90;;;;;;6149967;28;20074;-78
2023/04/03 01:13:56;;;;;;;2.95;1.05;;;5.80;99.90;;;;;;6148905;28;20058;-76
2023/04/03 01:16:58;;;;;;;0.70;0.60;;;5.80;99.90;;;;;;6149760;28;20066;-77
2023/04/03 01:20:30;;;;;;;1.83;1.05;;;5.80;99.90;;;;;;6149787;28;20394;-76
2023/04/03 01:23:44;;;;;;;1.25;1.10;;;5.80;99.90;;;;;;6149264;28;20134;-77
2023/04/03 01:26:48;;;;;;;0.80;0.80;;;5.70;99.90;;;;;;6150786;28;20043;-77
2023/04/03 01:29:50;;;;;;;1.00;0.90;;;5.70;99.90;;;;;;6149484;28;20055;-77
2023/04/03 01:32:53;;;;;;;0.80;0.80;;;5.70;99.90;;;;;;6150206;28;20047;-77
2023/04/03 01:35:55;;;;;;;0.85;0.85;;;5.70;99.90;;;;;;6149588;28;20054;-78
2023/04/03 01:38:59;;;;;;;0.90;0.80;;;5.70;99.90;;;;;;6149502;28;20047;-77
2023/04/03 01:42:00;;;;;;;1.00;0.90;;;5.70;99.90;;;;;;6150853;28;20047;-77
2023/04/03 01:45:02;;;;;;;1.42;0.80;;;5.60;99.90;;;;;;6151358;28;20082;-77
2023/04/03 01:48:05;;;;;;;1.10;0.98;;;5.60;99.90;;;;;;6150396;28;20051;-77
2023/04/03 01:51:07;;;;;;;2.03;1.88;;;5.50;99.90;;;;;;6149499;28;20053;-77
2023/04/03 01:54:09;;;;;;;0.93;0.75;;;5.50;99.90;;;;;;6149319;28;20047;-77
2023/04/03 01:57:11;;;;;;;0.93;0.82;;;5.50;99.90;;;;;;6149676;28;20043;-76
2023/04/03 02:00:14;;;;;;;0.70;0.70;;;5.40;99.90;;;;;;6148967;28;20502;-77
2023/04/03 02:03:17;;;;;;;1.02;1.02;;;5.40;99.90;;;;;;6149883;28;20047;-77
2023/04/03 02:06:19;;;;;;;1.40;1.05;;;5.40;99.90;;;;;;6148817;28;20047;-77
2023/04/03 02:09:20;;;;;;;1.90;0.93;;;5.30;99.90;;;;;;6150495;28;20051;-76
2023/04/03 02:12:22;;;;;;;1.70;0.75;;;5.20;99.90;;;;;;6149737;28;20051;-77
2023/04/03 02:15:24;;;;;;;1.35;1.00;;;5.10;99.90;;;;;;6149805;28;20050;-77
2023/04/03 02:18:27;;;;;;;1.52;1.05;;;5.00;99.90;;;;;;6149808;28;20058;-77
2023/04/03 02:21:28;;;;;;;2.00;1.35;;;5.00;99.90;;;;;;6150116;28;20058;-76
2023/04/03 02:24:30;;;;;;;1.88;1.38;;;4.90;99.90;;;;;;6149854;28;20043;-76
2023/04/03 02:27:32;;;;;;;3.25;1.25;;;4.80;99.90;;;;;;6151626;28;20049;-76
2023/04/03 02:30:34;;;;;;;4.07;1.20;;;4.80;99.90;;;;;;6148834;28;20418;-77
2023/04/03 02:33:37;;;;;;;1.25;1.15;;;4.70;99.90;;;;;;6149002;28;20055;-77
2023/04/03 02:36:39;;;;;;;1.40;1.08;;;4.70;99.90;;;;;;6149479;28;20043;-77
2023/04/03 02:39:41;;;;;;;2.13;1.67;;;4.60;99.90;;;;;;6149437;28;20052;-77
2023/04/03 02:42:42;;;;;;;1.20;1.10;;;4.60;99.90;;;;;;6149296;28;20533;-76
2023/04/03 02:45:44;;;;;;;2.63;0.93;;;4.50;99.90;;;;;;6149641;28;20493;-77
2023/04/03 02:48:47;;;;;;;0.90;0.85;;;4.40;99.90;;;;;;6148807;28;20050;-77
2023/04/03 02:51:50;;;;;;;1.75;1.05;;;4.40;99.90;;;;;;6148839;28;20058;-77
2023/04/03 02:54:52;;;;;;;3.78;1.80;;;4.30;99.90;;;;;;6148659;28;20352;-77
2023/04/03 02:57:54;;;;;;;1.38;1.00;;;4.30;99.90;;;;;;6149028;28;20054;-77
2023/04/03 03:00:55;;;;;;;1.02;0.98;;;4.20;99.90;;;;;;6149001;28;20062;-77
2023/04/03 03:03:58;;;;;;;1.40;1.20;;;4.20;99.90;;;;;;6148455;28;20068;-76
2023/04/03 03:07:00;;;;;;;1.40;1.10;;;4.10;99.90;;;;;;6148498;28;20063;-77
2023/04/03 03:10:02;;;;;;;1.77;1.15;;;4.10;99.90;;;;;;6148915;28;20051;-77
2023/04/03 03:13:03;;;;;;;1.38;1.27;;;4.10;99.90;;;;;;6149761;28;20051;-77
2023/04/03 03:16:06;;;;;;;1.08;0.95;;;4.00;99.90;;;;;;6152533;28;20054;-77
2023/04/03 03:19:09;;;;;;;1.83;1.10;;;4.00;99.90;;;;;;6150485;28;20048;-77
2023/04/03 03:22:11;;;;;;;2.15;1.45;;;3.90;99.90;;;;;;6154297;28;20043;-77
2023/04/03 03:25:13;;;;;;;1.27;1.17;;;3.90;99.90;;;;;;6154487;28;20051;-77
2023/04/03 03:28:15;;;;;;;1.58;1.48;;;3.80;99.90;;;;;;6153991;28;20043;-77
2023/04/03 03:31:17;;;;;;;2.05;1.27;;;3.80;99.90;;;;;;6153557;28;20051;-77
2023/04/03 03:34:20;;;;;;;1.00;1.00;;;3.70;99.90;;;;;;6153383;28;20050;-77
2023/04/03 03:37:22;;;;;;;1.65;1.30;;;3.70;99.90;;;;;;6153552;28;20043;-77
2023/04/03 03:40:23;;;;;;;2.45;1.10;;;3.70;99.90;;;;;;6153446;28;20055;-77
2023/04/03 03:43:25;;;;;;;1.23;1.13;;;3.70;99.90;;;;;;6153715;28;20128;-77
2023/04/03 03:46:27;;;;;;;1.00;0.90;;;3.60;99.90;;;;;;6153590;28;20043;-77
2023/04/03 03:49:30;;;;;;;1.10;1.02;;;3.60;99.90;;;;;;6154320;28;20047;-77
2023/04/03 03:52:31;;;;;;;2.85;2.35;;;3.50;99.90;;;;;;6153702;28;20051;-77
2023/04/03 03:55:33;;;;;;;1.67;1.38;;;3.50;99.90;;;;;;6153341;28;20055;-77
2023/04/03 03:58:35;;;;;;;3.00;1.63;;;3.50;99.90;;;;;;6155371;28;20059;-77
2023/04/03 04:01:37;;;;;;;1.63;1.52;;;3.40;99.90;;;;;;6155066;28;20430;-77
2023/04/03 04:04:40;;;;;;;1.88;1.75;;;3.30;99.90;;;;;;6153483;28;20514;-77
2023/04/03 04:07:41;;;;;;;1.63;1.27;;;3.30;99.90;;;;;;6152429;28;20667;-78
2023/04/03 04:10:43;;;;;;;1.52;1.27;;;3.30;99.90;;;;;;6151550;28;20132;-77
2023/04/03 04:13:45;;;;;;;2.70;1.63;;;3.40;99.90;;;;;;6151576;28;20059;-77
2023/04/03 04:16:46;;;;;;;2.33;1.38;;;3.40;99.90;;;;;;6155518;28;20505;-77
2023/04/03 04:19:49;;;;;;;3.00;1.90;;;3.40;99.90;;;;;;6174953;28;20058;-77
2023/04/03 04:22:51;;;;;;;2.30;1.45;;;3.40;99.90;;;;;;6175390;28;20057;-77
2023/04/03 04:25:53;;;;;;;2.05;1.83;;;3.50;99.90;;;;;;6174803;28;20061;-77
2023/04/03 04:28:54;;;;;;;2.53;1.88;;;3.50;99.90;;;;;;6175390;28;20050;-77
2023/04/03 04:31:56;;;;;;;2.45;1.58;;;3.60;99.90;;;;;;6183536;28;20054;-80
2023/04/03 04:34:59;;;;;;;2.00;1.45;;;3.60;99.90;;;;;;6187223;28;20050;-79
2023/04/03 04:38:01;;;;;;;1.50;1.40;;;3.70;99.90;;;;;;6185752;28;20488;-80
2023/04/03 04:41:03;;;;;;;1.40;1.30;;;3.70;99.90;;;;;;6186721;28;20055;-79
2023/04/03 04:44:04;;;;;;;8.18;6.13;;;3.80;99.90;;;;;;6183930;28;20043;-79
2023/04/03 04:47:06;;;;;;;2.00;1.80;;;3.90;99.90;;;;;;6185404;28;20050;-79
2023/04/03 04:50:11;;;;;;;2.88;1.50;;;3.90;99.90;;;;;;6184106;28;20058;-79
2023/04/03 04:53:12;;;;;;;3.22;1.15;;;4.00;99.90;;;;;;6183830;28;20051;-79
2023/04/03 04:56:14;;;;;;;2.85;1.20;;;3.90;99.90;;;;;;6181617;28;20046;-80
2023/04/03 04:59:16;;;;;;;2.05;1.77;;;3.90;99.90;;;;;;6185013;28;20050;-79
2023/04/03 05:02:18;;;;;;;2.40;1.20;;;3.90;99.90;;;;;;6181780;28;20043;-79
2023/04/03 05:05:21;;;;;;;1.98;1.48;;;3.90;99.90;;;;;;6184072;28;20054;-79
2023/04/03 05:08:22;;;;;;;1.13;1.02;;;3.90;99.90;;;;;;6183225;28;20054;-79
2023/04/03 05:11:25;;;;;;;2.88;1.00;;;3.90;99.90;;;;;;6185310;28;20047;-80
2023/04/03 05:14:27;;;;;;;1.85;1.42;;;3.90;99.90;;;;;;6167060;28;20043;-79
2023/04/03 05:17:28;;;;;;;1.00;0.90;;;3.90;99.90;;;;;;6160795;28;20050;-80
2023/04/03 05:20:31;;;;;;;1.48;1.38;;;4.00;99.90;;;;;;6161201;28;20043;-80
2023/04/03 05:23:33;;;;;;;4.35;1.63;;;4.00;99.90;;;;;;6159910;28;20058;-80
2023/04/03 05:26:35;;;;;;;1.60;1.50;;;4.00;99.90;;;;;;6160383;28;20178;-80
2023/04/03 05:29:36;;;;;;;1.73;1.63;;;4.00;99.90;;;;;;6161304;28;20107;-80
2023/04/03 05:32:38;;;;;;;2.00;1.60;;;4.00;99.90;;;;;;6161614;28;20057;-80
2023/04/03 05:35:43;;;;;;;2.00;1.63;;;4.00;99.90;;;;;;6160287;28;20121;-79
2023/04/03 05:38:45;;;;;;;2.15;1.33;;;4.00;99.90;;;;;;6158913;28;20051;-79
2023/04/03 05:41:47;;;;;;;2.35;1.55;;;4.00;99.90;;;;;;6159927;28;20101;-79
2023/04/03 05:44:49;;;;;;;2.60;1.60;;;4.10;99.90;;;;;;6158988;28;20043;-79
2023/04/03 05:47:51;;;;;;;1.35;1.25;;;4.00;99.90;;;;;;6159578;28;20053;-79
2023/04/03 05:50:54;;;;;;;2.30;1.30;;;4.10;99.90;;;;;;6161729;28;20225;-79
2023/04/03 05:54:01;;;;;;;2.33;1.38;;;4.10;99.90;;;;;;6162322;28;20051;-79
2023/04/03 05:57:03;;;;;;;2.17;1.20;;;4.10;99.90;;;;;;6163632;28;20116;-80
2023/04/03 06:00:07;;;;;;;1.67;1.58;;;4.10;99.90;;;;;;6162552;28;20058;-80
2023/04/03 06:03:09;;;;;;;5.13;2.63;;;4.20;99.90;;;;;;6161964;28;20051;-80
2023/04/03 06:06:14;;;;;;;2.03;1.63;;;4.20;99.90;;;;;;6163903;28;20118;-80
2023/04/03 06:09:17;;;;;;;1.58;1.48;;;4.40;99.90;;;;;;6163721;28;20067;-80
2023/04/03 06:12:19;;;;;;;1.70;1.33;;;4.40;99.90;;;;;;6163263;28;20054;-80
2023/04/03 06:15:21;;;;;;;1.38;1.27;;;4.50;99.90;;;;;;6163250;28;20061;-80
2023/04/03 06:18:23;;;;;;;1.05;0.90;;;4.60;99.90;;;;;;6164582;28;20103;-80
2023/04/03 06:21:26;;;;;;;1.23;1.13;;;4.70;99.90;;;;;;6162511;29;20047;-80
2023/04/03 06:24:28;;;;;;;2.00;1.30;;;4.70;99.90;;;;;;6135971;28;20048;-80
2023/04/03 06:27:30;;;;;;;1.20;1.10;;;4.80;99.90;;;;;;6136505;28;20056;-80
2023/04/03 06:30:32;;;;;;;2.80;1.38;;;4.80;99.90;;;;;;6137806;28;20054;-81
2023/04/03 06:33:33;;;;;;;1.63;1.52;;;4.90;99.90;;;;;;6137288;29;20062;-80
2023/04/03 06:36:37;;;;;;;2.05;1.45;;;5.00;99.90;;;;;;6137047;28;20047;-80
2023/04/03 06:39:38;;;;;;;2.30;1.52;;;5.20;99.90;;;;;;6137789;28;20055;-80
2023/04/03 06:42:40;;;;;;;1.30;1.08;;;5.40;99.90;;;;;;6137112;28;20054;-80
2023/04/03 06:45:42;;;;;;;1.27;1.17;;;5.80;99.90;;;;;;6137843;29;20059;-80
2023/04/03 06:48:44;;;;;;;3.00;1.33;;;6.10;99.90;;;;;;6141035;28;20043;-80
2023/04/03 06:51:47;;;;;;;1.30;1.20;;;6.40;99.90;;;;;;6143460;28;20048;-81
2023/04/03 06:54:49;;;;;;;1.55;0.73;;;6.60;99.90;;;;;;6141709;28;20047;-81
2023/04/03 06:57:50;;;;;;;2.05;1.27;;;6.70;99.90;;;;;;6140895;28;20052;-81
2023/04/03 07:00:52;;;;;;;1.27;1.10;;;6.70;99.90;;;;;;6140987;29;20051;-81
2023/04/03 07:03:55;;;;;;;1.10;1.00;;;6.60;99.90;;;;;;6140730;28;20056;-80
2023/04/03 07:06:58;;;;;;;1.65;1.20;;;6.60;99.90;;;;;;6142283;28;20052;-80
2023/04/03 07:10:00;;;;;;;2.15;1.30;;;6.60;99.90;;;;;;6141050;28;20051;-80
2023/04/03 07:13:01;;;;;;;1.33;1.20;;;6.80;99.90;;;;;;6142997;29;20051;-80
2023/04/03 07:16:04;;;;;;;2.00;1.17;;;6.90;99.90;;;;;;6140696;28;20054;-80
2023/04/03 07:19:08;;;;;;;1.13;0.70;;;7.00;99.90;;;;;;6140686;28;20075;-80
2023/04/03 07:22:12;;;;;;;2.30;1.27;;;7.00;99.90;;;;;;6142343;28;20414;-80
2023/04/03 07:25:13;;;;;;;1.70;1.17;;;6.90;99.90;;;;;;6140833;29;20463;-80
2023/04/03 07:28:16;;;;;;;1.23;1.00;;;7.10;99.90;;;;;;6140702;28;20051;-80
2023/04/03 07:31:18;;;;;;;5.90;1.70;;;7.20;99.90;;;;;;6139290;28;20055;-81
2023/04/03 07:34:20;;;;;;;2.67;2.17;;;7.30;99.90;;;;;;6149840;28;20140;-80
2023/04/03 07:37:24;;;;;;;1.40;1.30;;;7.30;99.90;;;;;;6147360;29;20134;-80
2023/04/03 07:40:26;;;;;;;2.95;1.60;;;7.60;99.90;;;;;;6144870;28;20526;-80
2023/04/03 07:43:28;;;;;;;2.20;1.52;;;8.10;99.90;;;;;;6136619;28;20431;-80
2023/04/03 07:46:30;;;;;;;4.65;1.70;;;8.70;99.90;;;;;;6135784;28;20055;-79
2023/04/03 07:49:32;;;;;;;1.40;1.30;;;9.60;99.90;;;;;;6128084;29;20047;-80
2023/04/03 07:52:35;;;;;;;2.08;1.65;;;10.30;99.90;;;;;;6126976;28;20051;-79
2023/04/03 07:55:42;;;;;;;1.88;1.42;;;10.80;99.90;;;;;;6130483;28;20059;-79
2023/04/03 07:58:45;;;;;;;1.42;1.20;;;11.50;99.90;;;;;;6130065;28;20048;-80
2023/04/03 08:01:46;;;;;;;2.05;1.85;;;12.10;99.50;;;;;;6134019;29;20052;-78
2023/04/03 08:04:48;;;;;;;1.00;0.80;;;12.40;97.50;;;;;;6136832;29;20055;-79
2023/04/03 08:07:51;;;;;;;1.88;1.67;;;12.40;95.90;;;;;;6151524;28;20058;-80
2023/04/03 08:10:54;;;;;;;2.30;1.60;;;12.20;94.60;;;;;;6159901;28;20050;-80
2023/04/03 08:13:57;;;;;;;2.28;1.42;;;12.10;94.40;;;;;;6155486;28;20494;-80
2023/04/03 08:16:58;;;;;;;1.70;1.45;;;12.50;94.90;;;;;;6158634;28;20054;-80
2023/04/03 08:20:00;;;;;;;2.65;1.40;;;12.70;93.40;;;;;;6160616;28;20051;-79
2023/04/03 08:23:03;;;;;;;2.40;1.30;;;12.80;92.80;;;;;;6159555;28;20055;-79
2023/04/03 08:26:10;;;;;;;1.73;1.38;;;12.70;92.20;;;;;;6155557;28;20070;-79
2023/04/03 08:29:11;;;;;;;1.38;1.27;;;12.90;91.50;;;;;;6159963;28;20073;-80
2023/04/03 08:32:13;;;;;;;1.17;1.02;;;12.90;92.00;;;;;;6163193;28;20062;-81
2023/04/03 08:35:15;;;;;;;3.05;1.67;;;12.80;91.20;;;;;;6163917;28;20493;-80
2023/04/03 08:38:18;;;;;;;1.33;1.13;;;12.00;90.50;;;;;;6161348;28;20421;-79
2023/04/03 08:41:30;;;;;;;1.67;1.27;;;11.00;90.30;;;;;;6163242;28;20059;-79
2023/04/03 08:44:40;;;;;;;3.28;1.42;;;10.30;91.20;;;;;;6157813;28;20051;-80
2023/04/03 08:47:47;;;;;;;2.72;1.15;;;9.90;91.80;;;;;;6165067;28;20047;-79
2023/04/03 08:50:54;;;;;;;1.58;0.98;;;9.80;92.70;;;;;;6160422;28;20046;-78
2023/04/03 08:54:02;;;;;;;1.95;1.65;;;10.30;92.80;;;;;;6157303;28;20544;-79
2023/04/03 08:57:06;;;;;;;1.85;0.90;;;10.70;92.00;;;;;;6135353;28;20058;-78
2023/04/03 09:00:17;;;;;;;1.85;1.00;;;10.80;90.90;;;;;;6140815;28;20051;-79
2023/04/03 09:03:21;;;;;;;1.10;1.00;;;11.00;91.10;;;;;;6138321;28;20058;-78
2023/04/03 09:06:28;;;;;;;1.00;0.77;;;11.10;90.30;;;;;;6142209;28;20387;-79
2023/04/03 09:09:35;;;;;;;2.15;1.13;;;11.20;90.50;;;;;;6144007;28;20043;-79
2023/04/03 09:12:40;;;;;;;4.00;1.23;;;11.30;90.10;;;;;;6141098;28;20054;-79
2023/04/03 09:15:42;;;;;;;2.17;1.20;;;11.70;90.90;;;;;;6139771;28;20050;-79
2023/04/03 09:18:48;;;;;;;1.42;1.10;;;12.40;90.30;;;;;;6140810;28;20046;-79
2023/04/03 09:21:49;;;;;;;3.28;1.10;;;12.70;86.80;;;;;;6141435;28;20047;-78
2023/04/03 09:24:59;;;;;;;1.35;1.13;;;12.10;86.10;;;;;;6140321;28;20055;-79
2023/04/03 09:28:02;;;;;;;2.20;1.40;;;11.50;86.40;;;;;;6142928;28;20507;-78
2023/04/03 09:31:19;;;;;;;2.33;1.40;;;11.30;86.80;;;;;;6139077;28;20113;-79
2023/04/03 09:34:23;;;;;;;1.15;1.05;;;11.40;86.70;;;;;;6141286;28;20058;-78
2023/04/03 09:37:38;;;;;;;1.98;1.17;;;11.30;86.80;;;;;;6139577;28;20058;-78
2023/04/03 09:40:42;;;;;;;1.58;1.30;;;11.10;87.00;;;;;;6142907;28;20047;-78
2023/04/03 09:43:53;;;;;;;1.98;1.20;;;10.80;86.40;;;;;;6140473;28;20043;-78
2023/04/03 09:46:55;;;;;;;1.58;1.08;;;10.50;86.90;;;;;;6144374;28;20051;-78
2023/04/03 09:50:19;;;;;;;1.80;1.00;;;10.30;85.80;;;;;;6140349;28;20088;-78
2023/04/03 09:53:29;;;;;;;1.42;0.90;;;10.10;86.30;;;;;;6142374;28;20077;-78
2023/04/03 09:56:32;;;;;;;1.35;0.80;;;10.20;87.40;;;;;;6141289;28;20062;-77
2023/04/03 09:59:34;;;;;;;1.30;1.00;;;10.50;85.00;;;;;;6151443;28;20047;-78
2023/04/03 10:02:38;;;;;;;1.30;0.98;;;10.40;84.30;;;;;;6148013;28;20049;-78
2023/04/03 10:05:42;;;;;;;1.27;0.88;;;10.20;83.90;;;;;;6146854;28;20087;-78
2023/04/03 10:08:43;;;;;;;1.13;1.00;;;10.10;84.60;;;;;;6148434;28;20050;-77
2023/04/03 10:12:00;;;;;;;0.77;0.77;;;10.30;84.50;;;;;;6148829;28;20390;-78
2023/04/03 10:15:02;;;;;;;1.38;1.23;;;10.40;83.80;;;;;;6147334;28;20047;-78
2023/04/03 10:18:14;;;;;;;2.55;1.45;;;10.60;83.90;;;;;;6147738;28;20082;-77
2023/04/03 10:21:28;;;;;;;4.13;1.05;;;10.70;80.50;;;;;;6145044;28;20052;-78
2023/04/03 10:24:36;;;;;;;0.75;0.70;;;10.60;81.40;;;;;;6145123;28;20066;-78
2023/04/03 10:27:49;;;;;;;1.15;0.95;;;11.00;81.90;;;;;;6147240;28;20063;-79
2023/04/03 10:30:59;;;;;;;0.40;0.40;;;11.50;79.70;;;;;;6144337;28;20418;-78
2023/04/03 10:34:06;;;;;;;2.13;0.80;;;11.30;76.00;;;;;;6146490;28;20051;-78
2023/04/03 10:37:18;;;;;;;1.37;1.00;;;11.10;77.30;;;;;;6146005;28;21252;-78
2023/04/03 10:40:32;;;;;;;1.15;0.70;;;11.30;77.90;;;;;;6144560;28;20074;-78
2023/04/03 10:43:43;;;;;;;1.83;0.82;;;11.40;75.90;;;;;;6144757;28;20426;-78
2023/04/03 10:46:48;;;;;;;2.05;1.05;;;11.20;75.40;;;;;;6146435;28;20046;-78
2023/04/03 10:50:00;;;;;;;1.65;0.80;;;11.10;76.30;;;;;;6144018;28;20505;-78
2023/04/03 10:53:10;;;;;;;1.65;1.00;;;11.30;77.10;;;;;;6146721;28;20051;-79
2023/04/03 10:56:16;;;;;;;2.33;0.98;;;11.50;76.60;;;;;;6145181;28;20051;-78
2023/04/03 10:59:29;;;;;;;0.93;0.93;;;11.50;75.10;;;;;;6146313;28;20035;-77
2023/04/03 11:02:33;;;;;;;0.85;0.85;;;11.40;74.50;;;;;;6147436;28;20066;-79
2023/04/03 11:05:40;;;;;;;2.05;0.98;;;11.70;73.10;;;;;;6147429;28;20409;-79
2023/04/03 11:08:46;;;;;;;2.13;0.73;;;11.70;73.20;;;;;;6148732;28;20067;-79
2023/04/03 11:11:49;;;;;;;1.80;0.70;;;11.80;71.20;;;;;;6146980;28;20043;-80
2023/04/03 11:14:55;;;;;;;0.85;0.63;;;12.10;70.80;;;;;;6150066;28;20059;-79
2023/04/03 11:18:00;;;;;;;1.35;1.00;;;12.10;69.20;;;;;;6149745;28;20565;-78
2023/04/03 11:21:08;;;;;;;0.88;0.85;;;12.10;70.00;;;;;;6169340;28;20053;-78
2023/04/03 11:24:16;;;;;;;3.25;0.70;;;12.20;69.00;;;;;;6167230;28;20086;-78
2023/04/03 11:27:23;;;;;;;0.93;0.70;;;12.10;70.00;;;;;;6161353;28;23180;-78
2023/04/03 11:30:31;;;;;;;2.25;1.08;;;11.90;69.80;;;;;;6163899;28;20050;-79
2023/04/03 11:33:37;;;;;;;;;;;11.60;69.70;;;;;;6170833;28;20058;-77
2023/04/03 11:36:44;;;;;;;1.35;0.82;;;11.40;69.90;;;;;;6171196;28;19931;-78
2023/04/03 11:39:53;;;;;;;1.50;0.80;;;11.20;69.90;;;;;;6171094;28;20047;-79
2023/04/03 11:43:04;;;;;;;1.15;1.00;;;11.10;70.60;;;;;;6170018;28;20623;-78
2023/04/03 11:46:16;;;;;;;1.13;0.90;;;11.10;69.80;;;;;;6171283;28;20047;-78
2023/04/03 11:49:52;;;;;;;2.65;0.88;;;10.90;70.60;;;;;;6173168;28;20054;-78
2023/04/03 11:52:59;;;;;;;1.05;0.80;;;10.80;70.20;;;;;;6174056;28;20106;-78
2023/04/03 11:56:03;;;;;;;1.45;1.30;;;10.80;70.10;;;;;;6172692;28;20049;-78
2023/04/03 11:59:27;;;;;;;3.10;1.10;;;10.60;69.20;;;;;;6172086;28;20057;-80
2023/04/03 12:02:39;;;;;;;2.10;0.90;;;10.50;69.20;;;;;;6173435;28;20047;-78
2023/04/03 12:05:41;;;;;;;1.00;0.70;;;10.50;69.50;;;;;;6166097;28;20051;-77
2023/04/03 12:08:46;;;;;;;1.60;0.90;;;10.40;68.50;;;;;;6169616;28;20051;-78
2023/04/03 12:11:48;;;;;;;1.52;1.23;;;10.20;68.80;;;;;;6174224;28;20058;-79
2023/04/03 12:14:51;;;;;;;2.45;1.00;;;9.90;69.60;;;;;;6173194;28;20050;-78
2023/04/03 12:17:55;;;;;;;1.08;0.82;;;9.90;70.60;;;;;;6172104;28;20568;-77
2023/04/03 12:20:58;;;;;;;1.50;0.88;;;10.00;71.00;;;;;;6174518;28;20053;-78
2023/04/03 12:24:06;;;;;;;1.13;1.02;;;10.00;70.90;;;;;;6174137;28;20047;-77
2023/04/03 12:27:34;;;;;;;1.58;1.20;;;10.10;70.10;;;;;;6172076;28;20055;-78
2023/04/03 12:30:36;;;;;;;1.10;0.80;;;10.20;69.80;;;;;;6171898;28;20047;-78
2023/04/03 12:33:57;;;;;;;0.85;0.63;;;10.40;70.00;;;;;;6169578;28;20051;-78
2023/04/03 12:37:04;;;;;;;1.50;0.80;;;10.40;68.70;;;;;;6143723;29;20075;-79
2023/04/03 12:40:16;;;;;;;1.48;0.70;;;10.30;69.10;;;;;;6145661;28;20055;-78
2023/04/03 12:43:40;;;;;;;0.63;0.63;;;10.10;69.00;;;;;;6142360;28;21288;-79
2023/04/03 12:46:44;;;;;;;0.98;0.90;;;10.20;69.60;;;;;;6146079;28;20043;-78
2023/04/03 12:49:51;;;;;;;1.55;0.77;;;10.20;69.70;;;;;;6146942;28;20703;-77
2023/04/03 12:52:58;;;;;;;1.73;1.58;;;10.10;69.10;;;;;;6146431;28;20114;-78
2023/04/03 12:56:20;;;;;;;3.67;1.05;;;10.00;70.40;;;;;;6146205;28;20052;-77
2023/04/03 12:59:23;;;;;;;0.90;0.90;;;10.00;70.00;;;;;;6144736;28;20503;-77
2023/04/03 13:02:27;;;;;;;1.00;0.98;;;9.90;70.30;;;;;;6143617;28;20043;-78
2023/04/03 13:05:32;;;;;;;1.52;1.10;;;9.80;70.10;;;;;;6146294;28;20055;-77
2023/04/03 13:08:33;;;;;;;2.08;0.90;;;9.70;70.40;;;;;;6144326;28;20071;-77
2023/04/03 13:11:40;;;;;;;1.15;1.05;;;9.60;70.60;;;;;;6146057;28;20039;-77
2023/04/03 13:14:53;;;;;;;1.40;1.00;;;9.60;71.30;;;;;;6146596;28;20058;-79
2023/04/03 13:17:56;;;;;;;2.47;1.08;;;9.50;71.30;;;;;;6140415;28;20055;-78
2023/04/03 13:21:05;;;;;;;3.00;1.10;;;9.50;71.30;;;;;;6138855;29;20490;-78
2023/04/03 13:24:07;;;;;;;1.30;0.90;;;9.50;71.30;;;;;;6139689;28;20161;-78
2023/04/03 13:27:13;;;;;;;0.82;0.68;;;9.60;71.70;;;;;;6141200;28;20059;-77
2023/04/03 13:30:25;;;;;;;2.45;1.05;;;9.50;71.30;;;;;;6138820;28;20300;-77
2023/04/03 13:33:31;;;;;;;1.05;0.80;;;9.50;71.80;;;;;;6137094;28;20047;-78
2023/04/03 13:36:36;;;;;;;3.25;1.45;;;9.60;71.30;;;;;;6140741;28;20551;-78
2023/04/03 13:39:39;;;;;;;1.10;1.00;;;9.50;70.40;;;;;;6141521;28;20058;-78
2023/04/03 13:42:42;;;;;;;1.52;0.82;;;9.50;70.70;;;;;;6144727;28;20235;-78
2023/04/03 13:46:04;;;;;;;1.50;1.08;;;9.50;71.00;;;;;;6144670;29;20144;-78
2023/04/03 13:49:20;;;;;;;1.50;1.15;;;9.50;70.90;;;;;;6146964;28;20055;-78
2023/04/03 13:52:28;;;;;;;1.33;0.93;;;9.70;70.60;;;;;;6146010;28;20055;-77
2023/04/03 13:55:32;;;;;;;1.10;1.05;;;9.70;70.40;;;;;;6144539;28;20039;-78
2023/04/03 13:58:35;;;;;;;0.95;0.73;;;9.80;70.10;;;;;;6142134;28;20053;-78
2023/04/03 14:01:49;;;;;;;1.02;0.55;;;9.70;68.40;;;;;;6145760;29;20050;-79
2023/04/03 14:04:56;;;;;;;1.63;1.02;;;9.60;68.50;;;;;;6145048;28;20102;-78
2023/04/03 14:07:59;;;;;;;1.13;0.90;;;9.50;68.70;;;;;;6144372;28;20051;-78
2023/04/03 14:11:01;;;;;;;1.80;1.00;;;9.40;68.80;;;;;;6145807;28;20082;-78
2023/04/03 14:14:10;;;;;;;1.20;1.08;;;9.50;68.80;;;;;;6145058;28;20103;-78
2023/04/03 14:17:16;;;;;;;1.77;1.02;;;9.60;68.80;;;;;;6145321;29;20058;-78
2023/04/03 14:20:21;;;;;;;1.73;1.10;;;9.60;67.70;;;;;;6145958;28;20052;-79
2023/04/03 14:23:24;;;;;;;0.70;0.70;;;9.70;68.40;;;;;;6145382;28;20421;-78
2023/04/03 14:26:27;;;;;;;1.85;1.02;;;9.80;68.60;;;;;;6147187;28;20503;-78
2023/04/03 14:29:28;;;;;;;1.63;1.23;;;9.80;68.10;;;;;;6146856;28;20058;-77
2023/04/03 14:32:30;;;;;;;1.70;1.20;;;9.90;68.00;;;;;;6143322;28;20040;-78
2023/04/03 14:35:32;;;;;;;1.40;1.10;;;9.90;67.10;;;;;;6146312;28;20136;-78
2023/04/03 14:38:35;;;;;;;0.80;0.80;;;9.90;67.40;;;;;;6145515;28;20039;-80
2023/04/03 14:41:36;;;;;;;1.05;0.93;;;10.00;67.50;;;;;;6143912;29;20051;-79
2023/04/03 14:44:38;;;;;;;1.95;1.02;;;10.00;67.40;;;;;;6141443;28;20372;-79
2023/04/03 14:47:45;;;;;;;1.40;1.30;;;10.20;68.10;;;;;;6141244;28;20405;-82
2023/04/03 14:50:47;;;;;;;1.30;1.08;;;10.50;68.60;;;;;;6142431;28;20417;-82
2023/04/03 14:53:51;;;;;;;1.88;1.00;;;10.50;68.30;;;;;;6139866;28;20051;-80
2023/04/03 14:56:53;;;;;;;3.72;1.00;;;10.50;68.50;;;;;;6142502;29;20055;-80
2023/04/03 14:59:55;;;;;;;2.13;0.90;;;10.50;68.60;;;;;;6133859;28;20039;-81
2023/04/03 15:02:56;;;;;;;9.07;1.70;;;10.40;68.50;;;;;;6136111;28;20043;-82
2023/04/03 15:05:59;;;;;;;0.88;0.70;;;10.20;68.00;;;;;;6142663;28;20054;-81
2023/04/03 15:09:02;;;;;;;1.90;1.13;;;10.00;68.30;;;;;;6139579;28;20510;-78
2023/04/03 15:12:04;;;;;;;0.95;0.85;;;9.90;68.80;;;;;;6134311;28;20437;-81
2023/04/03 15:15:07;;;;;;;1.52;0.95;;;9.90;68.80;;;;;;6140557;28;20047;-80
2023/04/03 15:18:14;;;;;;;1.95;1.63;;;9.80;68.90;;;;;;6141206;28;20054;-79
2023/04/03 15:21:16;;;;;;;3.90;0.80;;;9.60;68.60;;;;;;6144648;29;20050;-81
2023/04/03 15:24:19;;;;;;;1.42;0.77;;;9.60;68.20;;;;;;6145073;28;20052;-81
2023/04/03 15:27:21;;;;;;;1.23;0.82;;;9.50;67.40;;;;;;6145642;28;20039;-79
2023/04/03 15:30:23;;;;;;;1.17;1.08;;;9.50;67.50;;;;;;6145310;28;20055;-79
2023/04/03 15:33:26;;;;;;;1.00;0.88;;;9.60;67.20;;;;;;6145151;28;20059;-79
2023/04/03 15:36:28;;;;;;;1.65;0.95;;;9.60;67.00;;;;;;6140820;28;20058;-79
2023/04/03 15:39:31;;;;;;;1.23;1.13;;;9.60;66.60;;;;;;6144626;28;20050;-79
2023/04/03 15:42:33;;;;;;;5.28;1.65;;;9.60;66.50;;;;;;6157927;28;20043;-80
2023/04/03 15:45:37;;;;;;;1.52;1.02;;;9.50;66.40;;;;;;6138864;28;20139;-80
2023/04/03 15:48:39;;;;;;;1.13;0.82;;;9.20;66.60;;;;;;6132121;28;20043;-80
2023/04/03 15:51:41;;;;;;;2.13;1.00;;;9.10;67.10;;;;;;6140417;28;20047;-79
2023/04/03 15:54:44;;;;;;;1.35;0.70;;;9.00;67.30;;;;;;6136887;29;20131;-81
2023/04/03 15:57:46;;;;;;;2.47;0.90;;;9.00;67.80;;;;;;6149736;29;21161;-82
2023/04/03 16:00:48;;;;;;;2.95;1.15;;;9.00;66.30;;;;;;6144307;28;20043;-82
2023/04/03 16:03:50;;;;;;;2.10;1.20;;;9.10;66.50;;;;;;6141266;28;20051;-80
2023/04/03 16:06:52;;;;;;;5.50;1.85;;;9.20;66.50;;;;;;6146268;28;20070;-79